sensor_id;sensor_type;location;lat;lon;timestamp;temperature;humidity
40291;DHT22;26000;48.304;13.626;2022-08-03T00:02:23;19.60;99.90
40291;DHT22;26000;48.304;13.626;2022-08-03T00:04:48;19.60;99.90
40291;DHT22;26000;48.304;13.626;2022-08-03T00:07:15;19.60;99.90
40291;DHT22;26000;48.304;13.626;2022-08-03T00:09:40;19.50;99.90
40291;DHT22;26000;48.304;13.626;2022-08-03T00:12:07;19.50;99.90
40291;DHT22;26000;48.304;13.626;2022-08-03T00:14:33;19.50;99.90
40291;DHT22;26000;48.304;13.626;2022-08-03T00:16:58;19.50;99.90
40291;DHT22;26000;48.304;13.626;2022-08-03T00:19:24;19.50;99.90
40291;DHT22;26000;48.304;13.626;2022-08-03T00:21:49;19.50;99.90
40291;DHT22;26000;48.304;13.626;2022-08-03T00:24:15;19.50;99.90
40291;DHT22;26000;48.304;13.626;2022-08-03T00:26:41;19.60;99.90
40291;DHT22;26000;48.304;13.626;2022-08-03T00:29:06;19.50;99.90
40291;DHT22;26000;48.304;13.626;2022-08-03T00:31:32;19.50;99.90
40291;DHT22;26000;48.304;13.626;2022-08-03T00:33:57;19.50;99.90
40291;DHT22;26000;48.304;13.626;2022-08-03T00:36:23;19.40;99.90
40291;DHT22;26000;48.304;13.626;2022-08-03T00:38:49;19.30;99.90
40291;DHT22;26000;48.304;13.626;2022-08-03T00:41:14;19.30;99.90
40291;DHT22;26000;48.304;13.626;2022-08-03T00:43:40;19.20;99.90
40291;DHT22;26000;48.304;13.626;2022-08-03T00:46:06;19.20;99.90
40291;DHT22;26000;48.304;13.626;2022-08-03T00:48:31;19.20;99.90
40291;DHT22;26000;48.304;13.626;2022-08-03T00:50:57;19.20;99.90
40291;DHT22;26000;48.304;13.626;2022-08-03T00:53:23;19.20;99.90
40291;DHT22;26000;48.304;13.626;2022-08-03T00:55:49;19.10;99.90
40291;DHT22;26000;48.304;13.626;2022-08-03T00:58:15;19.10;99.90
40291;DHT22;26000;48.304;13.626;2022-08-03T01:00:41;19.20;99.90
40291;DHT22;26000;48.304;13.626;2022-08-03T01:03:08;19.10;99.90
40291;DHT22;26000;48.304;13.626;2022-08-03T01:08:43;19.10;99.90
40291;DHT22;26000;48.304;13.626;2022-08-03T01:14:20;19.10;99.90
40291;DHT22;26000;48.304;13.626;2022-08-03T01:16:56;19.10;99.90
40291;DHT22;26000;48.304;13.626;2022-08-03T01:20:32;19.00;99.90
40291;DHT22;26000;48.304;13.626;2022-08-03T01:23:18;19.00;99.90
40291;DHT22;26000;48.304;13.626;2022-08-03T01:26:12;18.90;99.90
40291;DHT22;26000;48.304;13.626;2022-08-03T01:31:58;18.80;99.90
40291;DHT22;26000;48.304;13.626;2022-08-03T01:34:29;18.80;99.90
40291;DHT22;26000;48.304;13.626;2022-08-03T01:36:56;18.80;99.90
40291;DHT22;26000;48.304;13.626;2022-08-03T01:39:24;18.80;99.90
40291;DHT22;26000;48.304;13.626;2022-08-03T01:41:55;18.80;99.90
40291;DHT22;26000;48.304;13.626;2022-08-03T01:44:26;18.80;99.90
40291;DHT22;26000;48.304;13.626;2022-08-03T01:46:55;18.70;99.90
40291;DHT22;26000;48.304;13.626;2022-08-03T01:49:23;18.70;99.90
40291;DHT22;26000;48.304;13.626;2022-08-03T01:51:50;18.70;99.90
40291;DHT22;26000;48.304;13.626;2022-08-03T01:54:16;18.60;99.90
40291;DHT22;26000;48.304;13.626;2022-08-03T01:56:44;18.50;99.90
40291;DHT22;26000;48.304;13.626;2022-08-03T01:59:11;18.50;99.90
40291;DHT22;26000;48.304;13.626;2022-08-03T02:01:39;18.60;99.90
40291;DHT22;26000;48.304;13.626;2022-08-03T02:04:06;18.60;99.90
40291;DHT22;26000;48.304;13.626;2022-08-03T02:06:33;18.40;99.90
40291;DHT22;26000;48.304;13.626;2022-08-03T02:09:01;18.40;99.90
40291;DHT22;26000;48.304;13.626;2022-08-03T02:11:30;18.40;99.90
40291;DHT22;26000;48.304;13.626;2022-08-03T02:14:00;18.40;99.90
40291;DHT22;26000;48.304;13.626;2022-08-03T02:16:27;18.40;99.90
40291;DHT22;26000;48.304;13.626;2022-08-03T02:18:56;18.40;99.90
40291;DHT22;26000;48.304;13.626;2022-08-03T02:21:22;18.40;99.90
40291;DHT22;26000;48.304;13.626;2022-08-03T02:23:49;18.50;99.90
40291;DHT22;26000;48.304;13.626;2022-08-03T02:26:16;18.50;99.90
40291;DHT22;26000;48.304;13.626;2022-08-03T02:28:46;18.50;99.90
40291;DHT22;26000;48.304;13.626;2022-08-03T02:31:18;18.50;99.90
40291;DHT22;26000;48.304;13.626;2022-08-03T02:33:49;18.50;99.90
40291;DHT22;26000;48.304;13.626;2022-08-03T02:36:20;18.40;99.90
40291;DHT22;26000;48.304;13.626;2022-08-03T02:38:50;18.40;99.90
40291;DHT22;26000;48.304;13.626;2022-08-03T02:41:26;18.40;99.90
40291;DHT22;26000;48.304;13.626;2022-08-03T02:43:55;18.40;99.90
40291;DHT22;26000;48.304;13.626;2022-08-03T02:46:29;18.30;99.90
40291;DHT22;26000;48.304;13.626;2022-08-03T02:48:59;18.30;99.90
40291;DHT22;26000;48.304;13.626;2022-08-03T02:51:27;18.30;99.90
40291;DHT22;26000;48.304;13.626;2022-08-03T02:53:55;18.30;99.90
40291;DHT22;26000;48.304;13.626;2022-08-03T02:56:23;18.30;99.90
40291;DHT22;26000;48.304;13.626;2022-08-03T02:58:50;18.30;99.90
40291;DHT22;26000;48.304;13.626;2022-08-03T03:01:22;18.40;99.90
40291;DHT22;26000;48.304;13.626;2022-08-03T03:03:51;18.30;99.90
40291;DHT22;26000;48.304;13.626;2022-08-03T03:06:18;18.20;99.90
40291;DHT22;26000;48.304;13.626;2022-08-03T03:08:45;18.10;99.90
40291;DHT22;26000;48.304;13.626;2022-08-03T03:11:12;18.10;99.90
40291;DHT22;26000;48.304;13.626;2022-08-03T03:13:41;18.10;99.90
40291;DHT22;26000;48.304;13.626;2022-08-03T03:16:07;18.10;99.90
40291;DHT22;26000;48.304;13.626;2022-08-03T03:18:35;18.10;99.90
40291;DHT22;26000;48.304;13.626;2022-08-03T03:21:03;18.20;99.90
40291;DHT22;26000;48.304;13.626;2022-08-03T03:23:30;18.10;99.90
40291;DHT22;26000;48.304;13.626;2022-08-03T03:25:56;18.10;99.90
40291;DHT22;26000;48.304;13.626;2022-08-03T03:28:23;18.20;99.90
40291;DHT22;26000;48.304;13.626;2022-08-03T03:30:49;18.20;99.90
40291;DHT22;26000;48.304;13.626;2022-08-03T03:33:16;18.10;99.90
40291;DHT22;26000;48.304;13.626;2022-08-03T03:35:42;18.10;99.90
40291;DHT22;26000;48.304;13.626;2022-08-03T03:38:10;18.00;99.90
40291;DHT22;26000;48.304;13.626;2022-08-03T03:40:36;18.00;99.90
40291;DHT22;26000;48.304;13.626;2022-08-03T03:43:05;18.10;99.90
40291;DHT22;26000;48.304;13.626;2022-08-03T03:45:33;18.20;99.90
40291;DHT22;26000;48.304;13.626;2022-08-03T03:48:00;18.20;99.90
40291;DHT22;26000;48.304;13.626;2022-08-03T03:50:27;18.20;99.90
40291;DHT22;26000;48.304;13.626;2022-08-03T03:52:53;18.20;99.90
40291;DHT22;26000;48.304;13.626;2022-08-03T03:55:18;18.20;99.90
40291;DHT22;26000;48.304;13.626;2022-08-03T03:57:44;18.30;99.90
40291;DHT22;26000;48.304;13.626;2022-08-03T04:00:11;18.20;99.90
40291;DHT22;26000;48.304;13.626;2022-08-03T04:02:38;18.20;99.90
40291;DHT22;26000;48.304;13.626;2022-08-03T04:05:04;18.30;99.90
40291;DHT22;26000;48.304;13.626;2022-08-03T04:07:56;18.50;99.90
40291;DHT22;26000;48.304;13.626;2022-08-03T04:10:45;19.00;99.90
40291;DHT22;26000;48.304;13.626;2022-08-03T04:13:26;19.70;99.90
40291;DHT22;26000;48.304;13.626;2022-08-03T04:15:54;20.40;99.90
40291;DHT22;26000;48.304;13.626;2022-08-03T04:18:20;21.00;99.90
40291;DHT22;26000;48.304;13.626;2022-08-03T04:20:47;21.50;99.90
40291;DHT22;26000;48.304;13.626;2022-08-03T04:23:16;22.00;99.90
40291;DHT22;26000;48.304;13.626;2022-08-03T04:25:45;22.40;99.90
40291;DHT22;26000;48.304;13.626;2022-08-03T04:28:14;22.80;99.90
40291;DHT22;26000;48.304;13.626;2022-08-03T04:30:44;23.30;99.90
40291;DHT22;26000;48.304;13.626;2022-08-03T04:33:13;23.60;99.90
40291;DHT22;26000;48.304;13.626;2022-08-03T04:35:42;24.00;99.90
40291;DHT22;26000;48.304;13.626;2022-08-03T04:38:12;24.00;99.90
40291;DHT22;26000;48.304;13.626;2022-08-03T04:40:40;23.60;99.90
40291;DHT22;26000;48.304;13.626;2022-08-03T04:43:08;23.10;99.90
40291;DHT22;26000;48.304;13.626;2022-08-03T04:45:35;22.50;99.90
40291;DHT22;26000;48.304;13.626;2022-08-03T04:48:01;21.90;99.90
40291;DHT22;26000;48.304;13.626;2022-08-03T04:50:28;21.40;99.90
40291;DHT22;26000;48.304;13.626;2022-08-03T04:52:54;21.00;99.90
40291;DHT22;26000;48.304;13.626;2022-08-03T04:55:31;20.70;99.90
40291;DHT22;26000;48.304;13.626;2022-08-03T04:57:58;20.50;99.90
40291;DHT22;26000;48.304;13.626;2022-08-03T05:00:24;20.30;99.90
40291;DHT22;26000;48.304;13.626;2022-08-03T05:02:50;20.10;99.90
40291;DHT22;26000;48.304;13.626;2022-08-03T05:05:18;20.00;99.90
40291;DHT22;26000;48.304;13.626;2022-08-03T05:07:44;19.90;99.90
40291;DHT22;26000;48.304;13.626;2022-08-03T05:10:10;19.90;99.90
40291;DHT22;26000;48.304;13.626;2022-08-03T05:12:36;19.90;99.90
40291;DHT22;26000;48.304;13.626;2022-08-03T05:15:02;20.00;99.90
40291;DHT22;26000;48.304;13.626;2022-08-03T05:17:28;20.10;99.90
40291;DHT22;26000;48.304;13.626;2022-08-03T05:19:54;20.10;99.90
40291;DHT22;26000;48.304;13.626;2022-08-03T05:22:21;20.20;99.90
40291;DHT22;26000;48.304;13.626;2022-08-03T05:24:46;20.40;99.90
40291;DHT22;26000;48.304;13.626;2022-08-03T05:27:12;20.40;99.90
40291;DHT22;26000;48.304;13.626;2022-08-03T05:29:49;20.50;99.90
40291;DHT22;26000;48.304;13.626;2022-08-03T05:32:15;20.60;99.90
40291;DHT22;26000;48.304;13.626;2022-08-03T05:34:41;20.70;99.90
40291;DHT22;26000;48.304;13.626;2022-08-03T05:37:08;20.70;99.90
40291;DHT22;26000;48.304;13.626;2022-08-03T05:39:33;20.90;99.90
40291;DHT22;26000;48.304;13.626;2022-08-03T05:42:00;21.00;99.90
40291;DHT22;26000;48.304;13.626;2022-08-03T05:44:26;21.10;99.90
40291;DHT22;26000;48.304;13.626;2022-08-03T05:46:52;21.10;99.90
40291;DHT22;26000;48.304;13.626;2022-08-03T05:49:18;21.10;99.90
40291;DHT22;26000;48.304;13.626;2022-08-03T05:51:44;21.10;99.90
40291;DHT22;26000;48.304;13.626;2022-08-03T05:54:10;21.30;99.90
40291;DHT22;26000;48.304;13.626;2022-08-03T05:56:36;21.30;99.90
40291;DHT22;26000;48.304;13.626;2022-08-03T05:59:02;21.30;99.90
40291;DHT22;26000;48.304;13.626;2022-08-03T06:01:28;21.50;99.90
40291;DHT22;26000;48.304;13.626;2022-08-03T06:03:56;21.60;99.90
40291;DHT22;26000;48.304;13.626;2022-08-03T06:06:22;21.80;99.90
40291;DHT22;26000;48.304;13.626;2022-08-03T06:08:48;21.80;99.90
40291;DHT22;26000;48.304;13.626;2022-08-03T06:11:13;21.90;99.90
40291;DHT22;26000;48.304;13.626;2022-08-03T06:13:41;22.20;99.90
40291;DHT22;26000;48.304;13.626;2022-08-03T06:16:07;22.50;99.90
40291;DHT22;26000;48.304;13.626;2022-08-03T06:18:33;22.80;99.90
40291;DHT22;26000;48.304;13.626;2022-08-03T06:20:59;23.00;99.90
40291;DHT22;26000;48.304;13.626;2022-08-03T06:23:24;23.30;99.90
40291;DHT22;26000;48.304;13.626;2022-08-03T06:25:50;23.60;99.90
40291;DHT22;26000;48.304;13.626;2022-08-03T06:28:15;23.90;99.90
40291;DHT22;26000;48.304;13.626;2022-08-03T06:30:43;24.20;99.90
40291;DHT22;26000;48.304;13.626;2022-08-03T06:33:09;24.30;99.90
40291;DHT22;26000;48.304;13.626;2022-08-03T06:35:34;24.50;99.90
40291;DHT22;26000;48.304;13.626;2022-08-03T06:38:00;24.70;99.90
40291;DHT22;26000;48.304;13.626;2022-08-03T06:40:27;24.80;99.90
40291;DHT22;26000;48.304;13.626;2022-08-03T06:43:01;25.00;99.90
40291;DHT22;26000;48.304;13.626;2022-08-03T06:45:27;25.20;99.90
40291;DHT22;26000;48.304;13.626;2022-08-03T06:48:10;25.40;99.90
40291;DHT22;26000;48.304;13.626;2022-08-03T06:50:38;25.30;99.90
40291;DHT22;26000;48.304;13.626;2022-08-03T06:53:04;25.30;99.90
40291;DHT22;26000;48.304;13.626;2022-08-03T06:55:31;25.40;99.90
40291;DHT22;26000;48.304;13.626;2022-08-03T06:57:57;25.70;99.90
40291;DHT22;26000;48.304;13.626;2022-08-03T07:00:22;25.90;99.90
40291;DHT22;26000;48.304;13.626;2022-08-03T07:02:48;25.80;99.90
40291;DHT22;26000;48.304;13.626;2022-08-03T07:05:14;26.10;99.90
40291;DHT22;26000;48.304;13.626;2022-08-03T07:07:40;26.50;99.90
40291;DHT22;26000;48.304;13.626;2022-08-03T07:10:06;26.70;99.90
40291;DHT22;26000;48.304;13.626;2022-08-03T07:12:33;26.80;99.90
40291;DHT22;26000;48.304;13.626;2022-08-03T07:15:00;27.00;99.90
40291;DHT22;26000;48.304;13.626;2022-08-03T07:17:27;27.20;99.90
40291;DHT22;26000;48.304;13.626;2022-08-03T07:19:52;27.30;99.90
40291;DHT22;26000;48.304;13.626;2022-08-03T07:22:18;27.40;99.20
40291;DHT22;26000;48.304;13.626;2022-08-03T07:24:43;27.50;99.20
40291;DHT22;26000;48.304;13.626;2022-08-03T07:27:10;27.70;98.80
40291;DHT22;26000;48.304;13.626;2022-08-03T07:29:36;27.80;98.90
40291;DHT22;26000;48.304;13.626;2022-08-03T07:32:03;27.90;98.60
40291;DHT22;26000;48.304;13.626;2022-08-03T07:34:29;27.80;99.00
40291;DHT22;26000;48.304;13.626;2022-08-03T07:36:54;28.10;99.40
40291;DHT22;26000;48.304;13.626;2022-08-03T07:39:20;28.40;99.00
40291;DHT22;26000;48.304;13.626;2022-08-03T07:41:45;28.60;98.40
40291;DHT22;26000;48.304;13.626;2022-08-03T07:44:12;28.40;98.00
40291;DHT22;26000;48.304;13.626;2022-08-03T07:46:37;28.30;97.70
40291;DHT22;26000;48.304;13.626;2022-08-03T07:49:03;28.00;97.90
40291;DHT22;26000;48.304;13.626;2022-08-03T07:51:29;28.10;97.90
40291;DHT22;26000;48.304;13.626;2022-08-03T07:53:55;28.10;98.20
40291;DHT22;26000;48.304;13.626;2022-08-03T07:56:22;27.90;97.90
40291;DHT22;26000;48.304;13.626;2022-08-03T07:58:50;28.00;98.10
40291;DHT22;26000;48.304;13.626;2022-08-03T08:01:15;28.10;97.30
40291;DHT22;26000;48.304;13.626;2022-08-03T08:03:44;28.00;97.90
40291;DHT22;26000;48.304;13.626;2022-08-03T08:06:09;28.10;97.60
40291;DHT22;26000;48.304;13.626;2022-08-03T08:08:37;28.20;97.10
40291;DHT22;26000;48.304;13.626;2022-08-03T08:11:02;28.20;97.20
40291;DHT22;26000;48.304;13.626;2022-08-03T08:13:28;28.20;97.10
40291;DHT22;26000;48.304;13.626;2022-08-03T08:15:54;28.20;97.20
40291;DHT22;26000;48.304;13.626;2022-08-03T08:18:19;28.40;97.10
40291;DHT22;26000;48.304;13.626;2022-08-03T08:20:45;28.20;97.10
40291;DHT22;26000;48.304;13.626;2022-08-03T08:23:11;28.40;96.60
40291;DHT22;26000;48.304;13.626;2022-08-03T08:25:36;28.30;97.00
40291;DHT22;26000;48.304;13.626;2022-08-03T08:28:02;28.10;97.00
40291;DHT22;26000;48.304;13.626;2022-08-03T08:30:30;28.00;96.70
40291;DHT22;26000;48.304;13.626;2022-08-03T08:32:56;28.10;97.10
40291;DHT22;26000;48.304;13.626;2022-08-03T08:35:23;28.30;97.10
40291;DHT22;26000;48.304;13.626;2022-08-03T08:37:48;28.40;96.80
40291;DHT22;26000;48.304;13.626;2022-08-03T08:40:14;28.60;96.50
40291;DHT22;26000;48.304;13.626;2022-08-03T08:42:41;28.80;96.40
40291;DHT22;26000;48.304;13.626;2022-08-03T08:45:08;29.30;96.40
40291;DHT22;26000;48.304;13.626;2022-08-03T08:47:40;28.80;95.50
40291;DHT22;26000;48.304;13.626;2022-08-03T08:50:09;28.70;96.00
40291;DHT22;26000;48.304;13.626;2022-08-03T08:52:36;28.90;96.30
40291;DHT22;26000;48.304;13.626;2022-08-03T08:55:06;28.90;95.80
40291;DHT22;26000;48.304;13.626;2022-08-03T08:57:37;29.10;95.90
40291;DHT22;26000;48.304;13.626;2022-08-03T09:00:07;29.10;95.70
40291;DHT22;26000;48.304;13.626;2022-08-03T09:02:34;29.20;96.00
40291;DHT22;26000;48.304;13.626;2022-08-03T09:05:00;29.70;95.90
40291;DHT22;26000;48.304;13.626;2022-08-03T09:07:27;29.80;95.40
40291;DHT22;26000;48.304;13.626;2022-08-03T09:09:53;29.90;95.80
40291;DHT22;26000;48.304;13.626;2022-08-03T09:12:19;30.10;95.30
40291;DHT22;26000;48.304;13.626;2022-08-03T09:14:44;30.10;95.00
40291;DHT22;26000;48.304;13.626;2022-08-03T09:17:10;30.00;95.10
40291;DHT22;26000;48.304;13.626;2022-08-03T09:19:36;29.80;94.80
40291;DHT22;26000;48.304;13.626;2022-08-03T09:22:13;29.80;94.90
40291;DHT22;26000;48.304;13.626;2022-08-03T09:25:04;30.00;95.30
40291;DHT22;26000;48.304;13.626;2022-08-03T09:27:41;30.10;95.10
40291;DHT22;26000;48.304;13.626;2022-08-03T09:30:16;30.30;94.90
40291;DHT22;26000;48.304;13.626;2022-08-03T09:32:42;30.40;94.70
40291;DHT22;26000;48.304;13.626;2022-08-03T09:35:11;30.50;94.60
40291;DHT22;26000;48.304;13.626;2022-08-03T09:37:38;30.40;94.20
40291;DHT22;26000;48.304;13.626;2022-08-03T09:40:04;30.40;94.10
40291;DHT22;26000;48.304;13.626;2022-08-03T09:42:30;30.80;94.10
40291;DHT22;26000;48.304;13.626;2022-08-03T09:44:55;30.80;93.40
40291;DHT22;26000;48.304;13.626;2022-08-03T09:47:30;30.70;93.80
40291;DHT22;26000;48.304;13.626;2022-08-03T09:50:01;30.30;94.00
40291;DHT22;26000;48.304;13.626;2022-08-03T09:52:45;30.30;94.50
40291;DHT22;26000;48.304;13.626;2022-08-03T09:55:14;30.50;93.90
40291;DHT22;26000;48.304;13.626;2022-08-03T09:57:40;30.40;93.50
40291;DHT22;26000;48.304;13.626;2022-08-03T10:00:14;30.60;93.70
40291;DHT22;26000;48.304;13.626;2022-08-03T10:02:41;30.80;93.70
40291;DHT22;26000;48.304;13.626;2022-08-03T10:05:09;30.70;93.60
40291;DHT22;26000;48.304;13.626;2022-08-03T10:07:43;30.90;93.50
40291;DHT22;26000;48.304;13.626;2022-08-03T10:10:09;31.10;93.80
40291;DHT22;26000;48.304;13.626;2022-08-03T10:12:36;31.20;93.30
40291;DHT22;26000;48.304;13.626;2022-08-03T10:15:03;31.20;93.10
40291;DHT22;26000;48.304;13.626;2022-08-03T10:17:28;31.20;93.10
40291;DHT22;26000;48.304;13.626;2022-08-03T10:19:54;30.80;92.20
40291;DHT22;26000;48.304;13.626;2022-08-03T10:22:26;30.80;92.60
40291;DHT22;26000;48.304;13.626;2022-08-03T10:24:59;30.80;92.70
40291;DHT22;26000;48.304;13.626;2022-08-03T10:27:31;30.80;91.70
40291;DHT22;26000;48.304;13.626;2022-08-03T10:30:02;30.50;92.30
40291;DHT22;26000;48.304;13.626;2022-08-03T10:32:56;30.90;92.50
40291;DHT22;26000;48.304;13.626;2022-08-03T10:35:24;30.80;92.00
40291;DHT22;26000;48.304;13.626;2022-08-03T10:38:02;30.90;92.20
40291;DHT22;26000;48.304;13.626;2022-08-03T10:40:31;30.70;91.40
40291;DHT22;26000;48.304;13.626;2022-08-03T10:43:10;30.70;92.00
40291;DHT22;26000;48.304;13.626;2022-08-03T10:45:40;30.70;90.70
40291;DHT22;26000;48.304;13.626;2022-08-03T10:48:08;30.80;91.20
40291;DHT22;26000;48.304;13.626;2022-08-03T10:50:34;30.80;91.00
40291;DHT22;26000;48.304;13.626;2022-08-03T10:53:04;30.40;89.50
40291;DHT22;26000;48.304;13.626;2022-08-03T10:55:41;30.50;90.70
40291;DHT22;26000;48.304;13.626;2022-08-03T10:58:45;30.40;90.30
40291;DHT22;26000;48.304;13.626;2022-08-03T11:01:11;30.50;90.10
40291;DHT22;26000;48.304;13.626;2022-08-03T11:09:12;30.80;90.20
40291;DHT22;26000;48.304;13.626;2022-08-03T11:11:43;30.70;90.80
40291;DHT22;26000;48.304;13.626;2022-08-03T11:14:11;30.50;87.10
40291;DHT22;26000;48.304;13.626;2022-08-03T11:16:43;30.20;83.50
40291;DHT22;26000;48.304;13.626;2022-08-03T11:19:17;30.00;89.40
40291;DHT22;26000;48.304;13.626;2022-08-03T11:27:18;30.00;89.20
40291;DHT22;26000;48.304;13.626;2022-08-03T11:37:34;29.90;90.00
40291;DHT22;26000;48.304;13.626;2022-08-03T11:40:00;29.80;89.60
40291;DHT22;26000;48.304;13.626;2022-08-03T11:44:57;29.80;89.90
40291;DHT22;26000;48.304;13.626;2022-08-03T11:47:25;29.70;88.60
40291;DHT22;26000;48.304;13.626;2022-08-03T11:49:54;29.80;87.10
40291;DHT22;26000;48.304;13.626;2022-08-03T11:52:22;29.70;87.50
40291;DHT22;26000;48.304;13.626;2022-08-03T11:54:51;29.70;87.10
40291;DHT22;26000;48.304;13.626;2022-08-03T11:57:31;29.70;86.90
40291;DHT22;26000;48.304;13.626;2022-08-03T11:59:57;29.60;88.20
40291;DHT22;26000;48.304;13.626;2022-08-03T12:02:22;29.60;89.50
40291;DHT22;26000;48.304;13.626;2022-08-03T12:04:56;29.50;87.40
40291;DHT22;26000;48.304;13.626;2022-08-03T12:07:24;29.40;88.30
40291;DHT22;26000;48.304;13.626;2022-08-03T12:10:12;29.60;88.30
40291;DHT22;26000;48.304;13.626;2022-08-03T12:12:39;29.60;86.40
40291;DHT22;26000;48.304;13.626;2022-08-03T12:15:06;29.70;85.50
40291;DHT22;26000;48.304;13.626;2022-08-03T12:17:37;29.60;86.30
40291;DHT22;26000;48.304;13.626;2022-08-03T12:20:05;29.50;88.00
40291;DHT22;26000;48.304;13.626;2022-08-03T12:22:38;29.60;89.00
40291;DHT22;26000;48.304;13.626;2022-08-03T12:25:05;29.70;89.60
40291;DHT22;26000;48.304;13.626;2022-08-03T12:27:31;29.60;85.60
40291;DHT22;26000;48.304;13.626;2022-08-03T12:29:57;29.60;86.40
40291;DHT22;26000;48.304;13.626;2022-08-03T12:32:24;29.70;87.00
40291;DHT22;26000;48.304;13.626;2022-08-03T12:34:53;29.70;85.80
40291;DHT22;26000;48.304;13.626;2022-08-03T12:37:21;29.50;83.60
40291;DHT22;26000;48.304;13.626;2022-08-03T12:39:51;29.50;84.10
40291;DHT22;26000;48.304;13.626;2022-08-03T12:42:17;29.60;84.70
40291;DHT22;26000;48.304;13.626;2022-08-03T12:44:43;29.60;87.70
40291;DHT22;26000;48.304;13.626;2022-08-03T12:47:10;29.60;87.70
40291;DHT22;26000;48.304;13.626;2022-08-03T12:49:52;29.70;87.90
40291;DHT22;26000;48.304;13.626;2022-08-03T12:52:19;29.70;85.80
40291;DHT22;26000;48.304;13.626;2022-08-03T12:54:58;29.60;85.80
40291;DHT22;26000;48.304;13.626;2022-08-03T12:57:24;29.70;86.50
40291;DHT22;26000;48.304;13.626;2022-08-03T12:59:50;29.70;85.40
40291;DHT22;26000;48.304;13.626;2022-08-03T13:02:22;29.60;84.00
40291;DHT22;26000;48.304;13.626;2022-08-03T13:04:49;29.50;84.80
40291;DHT22;26000;48.304;13.626;2022-08-03T13:07:16;29.60;83.20
40291;DHT22;26000;48.304;13.626;2022-08-03T13:09:46;29.50;85.00
40291;DHT22;26000;48.304;13.626;2022-08-03T13:12:13;29.60;83.60
40291;DHT22;26000;48.304;13.626;2022-08-03T13:14:41;29.70;83.20
40291;DHT22;26000;48.304;13.626;2022-08-03T13:17:07;29.70;84.40
40291;DHT22;26000;48.304;13.626;2022-08-03T13:19:34;29.60;82.10
40291;DHT22;26000;48.304;13.626;2022-08-03T13:22:09;29.70;83.10
40291;DHT22;26000;48.304;13.626;2022-08-03T13:24:35;29.70;83.20
40291;DHT22;26000;48.304;13.626;2022-08-03T13:27:01;29.70;85.10
40291;DHT22;26000;48.304;13.626;2022-08-03T13:29:27;29.70;84.40
40291;DHT22;26000;48.304;13.626;2022-08-03T13:31:52;29.70;83.80
40291;DHT22;26000;48.304;13.626;2022-08-03T13:34:18;29.60;84.60
40291;DHT22;26000;48.304;13.626;2022-08-03T13:36:44;29.60;85.50
40291;DHT22;26000;48.304;13.626;2022-08-03T13:39:09;29.40;83.70
40291;DHT22;26000;48.304;13.626;2022-08-03T13:41:35;29.40;84.40
40291;DHT22;26000;48.304;13.626;2022-08-03T13:44:01;29.40;84.10
40291;DHT22;26000;48.304;13.626;2022-08-03T13:46:26;29.50;83.90
40291;DHT22;26000;48.304;13.626;2022-08-03T13:48:52;29.50;84.70
40291;DHT22;26000;48.304;13.626;2022-08-03T13:51:18;29.60;83.40
40291;DHT22;26000;48.304;13.626;2022-08-03T13:53:43;29.60;83.40
40291;DHT22;26000;48.304;13.626;2022-08-03T13:56:09;29.60;84.10
40291;DHT22;26000;48.304;13.626;2022-08-03T13:58:34;29.60;84.30
40291;DHT22;26000;48.304;13.626;2022-08-03T14:01:00;29.60;84.10
40291;DHT22;26000;48.304;13.626;2022-08-03T14:03:26;29.60;84.10
40291;DHT22;26000;48.304;13.626;2022-08-03T14:05:51;29.80;83.90
40291;DHT22;26000;48.304;13.626;2022-08-03T14:08:17;29.80;83.30
40291;DHT22;26000;48.304;13.626;2022-08-03T14:10:44;29.80;81.60
40291;DHT22;26000;48.304;13.626;2022-08-03T14:13:10;29.70;81.00
40291;DHT22;26000;48.304;13.626;2022-08-03T14:15:36;29.70;80.50
40291;DHT22;26000;48.304;13.626;2022-08-03T14:18:02;29.70;81.10
40291;DHT22;26000;48.304;13.626;2022-08-03T14:20:28;29.60;81.60
40291;DHT22;26000;48.304;13.626;2022-08-03T14:22:54;29.60;82.70
40291;DHT22;26000;48.304;13.626;2022-08-03T14:25:20;29.70;82.90
40291;DHT22;26000;48.304;13.626;2022-08-03T14:27:45;29.60;82.70
40291;DHT22;26000;48.304;13.626;2022-08-03T14:30:11;29.50;82.40
40291;DHT22;26000;48.304;13.626;2022-08-03T14:32:37;29.60;82.80
40291;DHT22;26000;48.304;13.626;2022-08-03T14:35:03;29.60;81.90
40291;DHT22;26000;48.304;13.626;2022-08-03T14:37:29;29.60;81.50
40291;DHT22;26000;48.304;13.626;2022-08-03T14:39:55;29.60;81.40
40291;DHT22;26000;48.304;13.626;2022-08-03T14:42:20;29.60;81.80
40291;DHT22;26000;48.304;13.626;2022-08-03T14:44:46;29.60;82.10
40291;DHT22;26000;48.304;13.626;2022-08-03T14:47:12;29.70;81.20
40291;DHT22;26000;48.304;13.626;2022-08-03T14:49:38;29.70;80.20
40291;DHT22;26000;48.304;13.626;2022-08-03T14:52:04;29.70;80.00
40291;DHT22;26000;48.304;13.626;2022-08-03T14:54:30;29.70;79.60
40291;DHT22;26000;48.304;13.626;2022-08-03T14:56:56;29.70;80.40
40291;DHT22;26000;48.304;13.626;2022-08-03T14:59:22;29.60;80.80
40291;DHT22;26000;48.304;13.626;2022-08-03T15:01:47;29.60;79.50
40291;DHT22;26000;48.304;13.626;2022-08-03T15:04:13;29.70;80.00
40291;DHT22;26000;48.304;13.626;2022-08-03T15:06:39;29.60;80.40
40291;DHT22;26000;48.304;13.626;2022-08-03T15:09:04;29.50;80.30
40291;DHT22;26000;48.304;13.626;2022-08-03T15:11:30;29.50;81.50
40291;DHT22;26000;48.304;13.626;2022-08-03T15:13:56;29.60;80.10
40291;DHT22;26000;48.304;13.626;2022-08-03T15:16:21;29.60;81.10
40291;DHT22;26000;48.304;13.626;2022-08-03T15:18:47;29.60;80.20
40291;DHT22;26000;48.304;13.626;2022-08-03T15:21:13;29.70;79.80
40291;DHT22;26000;48.304;13.626;2022-08-03T15:23:38;29.60;78.70
40291;DHT22;26000;48.304;13.626;2022-08-03T15:26:04;29.60;78.60
40291;DHT22;26000;48.304;13.626;2022-08-03T15:28:30;29.50;80.20
40291;DHT22;26000;48.304;13.626;2022-08-03T15:30:56;29.50;79.90
40291;DHT22;26000;48.304;13.626;2022-08-03T15:33:21;29.50;78.70
40291;DHT22;26000;48.304;13.626;2022-08-03T15:35:47;29.70;78.90
40291;DHT22;26000;48.304;13.626;2022-08-03T15:38:14;29.60;78.10
40291;DHT22;26000;48.304;13.626;2022-08-03T15:40:40;29.60;77.70
40291;DHT22;26000;48.304;13.626;2022-08-03T15:43:05;29.50;78.00
40291;DHT22;26000;48.304;13.626;2022-08-03T15:45:31;29.50;77.50
40291;DHT22;26000;48.304;13.626;2022-08-03T15:47:57;29.40;76.80
40291;DHT22;26000;48.304;13.626;2022-08-03T15:50:22;29.40;77.60
40291;DHT22;26000;48.304;13.626;2022-08-03T15:52:48;29.50;77.70